sensor_id;sensor_type;location;lat;lon;timestamp;P1;durP1;ratioP1;P2;durP2;ratioP2
31514;SDS011;40526;52.088;17.020;2023-11-19T04:09:16;42.05;;;18.67;;
31514;SDS011;40526;52.088;17.020;2023-11-19T04:14:18;51.60;;;23.33;;
31514;SDS011;40526;52.088;17.020;2023-11-19T04:19:21;64.28;;;28.23;;
31514;SDS011;40526;52.088;17.020;2023-11-19T04:24:26;75.80;;;28.77;;
31514;SDS011;40526;52.088;17.020;2023-11-19T04:29:29;62.33;;;25.60;;
31514;SDS011;40526;52.088;17.020;2023-11-19T04:34:32;46.70;;;22.70;;
31514;SDS011;40526;52.088;17.020;2023-11-19T04:39:36;48.97;;;22.23;;
31514;SDS011;40526;52.088;17.020;2023-11-19T04:44:38;48.45;;;24.88;;
31514;SDS011;40526;52.088;17.020;2023-11-19T04:49:41;44.70;;;22.67;;
31514;SDS011;40526;52.088;17.020;2023-11-19T04:54:45;39.78;;;18.67;;
31514;SDS011;40526;52.088;17.020;2023-11-19T04:59:48;37.63;;;17.65;;
31514;SDS011;40526;52.088;17.020;2023-11-19T05:04:50;35.15;;;16.55;;
31514;SDS011;40526;52.088;17.020;2023-11-19T05:09:54;40.60;;;18.55;;
31514;SDS011;40526;52.088;17.020;2023-11-19T05:14:57;40.78;;;19.88;;
31514;SDS011;40526;52.088;17.020;2023-11-19T05:20:00;45.65;;;19.67;;
31514;SDS011;40526;52.088;17.020;2023-11-19T05:25:05;40.65;;;19.83;;
31514;SDS011;40526;52.088;17.020;2023-11-19T05:30:07;36.47;;;20.92;;
31514;SDS011;40526;52.088;17.020;2023-11-19T05:35:11;33.80;;;16.33;;
31514;SDS011;40526;52.088;17.020;2023-11-19T05:40:14;36.05;;;16.83;;
31514;SDS011;40526;52.088;17.020;2023-11-19T05:45:17;32.10;;;17.10;;
31514;SDS011;40526;52.088;17.020;2023-11-19T05:50:20;32.85;;;15.70;;
31514;SDS011;40526;52.088;17.020;2023-11-19T05:55:24;34.33;;;16.98;;
31514;SDS011;40526;52.088;17.020;2023-11-19T06:00:28;37.35;;;17.48;;
31514;SDS011;40526;52.088;17.020;2023-11-19T06:05:30;39.22;;;17.30;;
31514;SDS011;40526;52.088;17.020;2023-11-19T06:10:34;32.15;;;15.90;;
31514;SDS011;40526;52.088;17.020;2023-11-19T06:15:37;29.10;;;15.27;;
31514;SDS011;40526;52.088;17.020;2023-11-19T06:20:40;36.42;;;17.15;;
31514;SDS011;40526;52.088;17.020;2023-11-19T06:25:44;36.55;;;16.70;;
31514;SDS011;40526;52.088;17.020;2023-11-19T06:30:46;34.33;;;16.88;;
31514;SDS011;40526;52.088;17.020;2023-11-19T06:35:48;31.63;;;15.10;;
31514;SDS011;40526;52.088;17.020;2023-11-19T06:40:52;31.92;;;16.27;;
31514;SDS011;40526;52.088;17.020;2023-11-19T06:45:55;30.65;;;14.52;;
31514;SDS011;40526;52.088;17.020;2023-11-19T06:50:57;30.38;;;15.52;;
31514;SDS011;40526;52.088;17.020;2023-11-19T06:56:01;33.42;;;16.55;;
31514;SDS011;40526;52.088;17.020;2023-11-19T07:01:06;33.15;;;16.02;;
31514;SDS011;40526;52.088;17.020;2023-11-19T07:06:09;28.40;;;14.52;;
31514;SDS011;40526;52.088;17.020;2023-11-19T07:11:14;30.77;;;14.65;;
31514;SDS011;40526;52.088;17.020;2023-11-19T07:16:17;26.80;;;14.18;;
31514;SDS011;40526;52.088;17.020;2023-11-19T07:21:21;23.17;;;12.85;;
31514;SDS011;40526;52.088;17.020;2023-11-19T07:26:25;33.05;;;16.42;;
31514;SDS011;40526;52.088;17.020;2023-11-19T07:31:28;27.83;;;14.15;;
31514;SDS011;40526;52.088;17.020;2023-11-19T07:36:30;54.90;;;19.65;;
31514;SDS011;40526;52.088;17.020;2023-11-19T07:41:34;30.52;;;16.55;;
31514;SDS011;40526;52.088;17.020;2023-11-19T07:46:39;26.70;;;14.13;;
31514;SDS011;40526;52.088;17.020;2023-11-19T07:51:42;28.27;;;13.73;;
31514;SDS011;40526;52.088;17.020;2023-11-19T07:56:46;29.13;;;14.48;;
31514;SDS011;40526;52.088;17.020;2023-11-19T08:01:50;25.95;;;14.07;;
31514;SDS011;40526;52.088;17.020;2023-11-19T08:06:52;29.67;;;14.85;;
31514;SDS011;40526;52.088;17.020;2023-11-19T08:11:56;21.60;;;12.57;;
31514;SDS011;40526;52.088;17.020;2023-11-19T08:16:58;27.08;;;15.20;;
31514;SDS011;40526;52.088;17.020;2023-11-19T08:22:01;25.27;;;14.35;;
31514;SDS011;40526;52.088;17.020;2023-11-19T08:27:05;28.13;;;15.63;;
31514;SDS011;40526;52.088;17.020;2023-11-19T08:32:07;36.33;;;16.55;;
31514;SDS011;40526;52.088;17.020;2023-11-19T08:37:10;34.38;;;15.50;;
31514;SDS011;40526;52.088;17.020;2023-11-19T08:42:14;30.90;;;15.43;;
31514;SDS011;40526;52.088;17.020;2023-11-19T08:47:17;38.95;;;18.38;;
31514;SDS011;40526;52.088;17.020;2023-11-19T08:52:19;37.97;;;17.48;;
31514;SDS011;40526;52.088;17.020;2023-11-19T08:57:23;43.72;;;19.05;;
31514;SDS011;40526;52.088;17.020;2023-11-19T09:02:25;52.33;;;21.60;;
31514;SDS011;40526;52.088;17.020;2023-11-19T09:07:28;65.50;;;26.60;;
31514;SDS011;40526;52.088;17.020;2023-11-19T09:12:32;62.88;;;29.33;;
31514;SDS011;40526;52.088;17.020;2023-11-19T09:17:34;47.08;;;21.88;;
31514;SDS011;40526;52.088;17.020;2023-11-19T09:22:36;63.20;;;26.73;;
31514;SDS011;40526;52.088;17.020;2023-11-19T09:27:40;67.65;;;27.73;;
31514;SDS011;40526;52.088;17.020;2023-11-19T09:32:43;55.00;;;26.73;;
31514;SDS011;40526;52.088;17.020;2023-11-19T09:37:45;70.65;;;27.80;;
31514;SDS011;40526;52.088;17.020;2023-11-19T09:42:49;62.50;;;26.23;;
31514;SDS011;40526;52.088;17.020;2023-11-19T09:47:51;50.78;;;22.83;;
31514;SDS011;40526;52.088;17.020;2023-11-19T09:52:54;58.05;;;26.75;;
31514;SDS011;40526;52.088;17.020;2023-11-19T09:57:58;59.25;;;26.60;;
31514;SDS011;40526;52.088;17.020;2023-11-19T10:03:02;48.53;;;21.17;;
31514;SDS011;40526;52.088;17.020;2023-11-19T10:08:07;51.38;;;23.65;;
31514;SDS011;40526;52.088;17.020;2023-11-19T10:13:12;53.80;;;26.00;;
31514;SDS011;40526;52.088;17.020;2023-11-19T10:18:15;57.25;;;25.30;;
31514;SDS011;40526;52.088;17.020;2023-11-19T10:23:17;46.67;;;22.70;;
31514;SDS011;40526;52.088;17.020;2023-11-19T10:28:21;43.80;;;22.67;;
31514;SDS011;40526;52.088;17.020;2023-11-19T10:33:23;54.22;;;24.30;;
31514;SDS011;40526;52.088;17.020;2023-11-19T10:38:31;46.13;;;20.55;;
31514;SDS011;40526;52.088;17.020;2023-11-19T10:43:43;53.92;;;24.15;;
31514;SDS011;40526;52.088;17.020;2023-11-19T10:48:46;55.88;;;23.58;;
31514;SDS011;40526;52.088;17.020;2023-11-19T10:53:48;37.05;;;20.45;;
31514;SDS011;40526;52.088;17.020;2023-11-19T10:58:53;40.78;;;19.02;;
31514;SDS011;40526;52.088;17.020;2023-11-19T11:03:59;48.63;;;22.55;;
31514;SDS011;40526;52.088;17.020;2023-11-19T11:09:02;58.03;;;28.50;;
31514;SDS011;40526;52.088;17.020;2023-11-19T11:14:06;85.70;;;37.05;;
31514;SDS011;40526;52.088;17.020;2023-11-19T11:19:10;88.82;;;38.13;;
31514;SDS011;40526;52.088;17.020;2023-11-19T11:24:21;86.07;;;39.15;;
31514;SDS011;40526;52.088;17.020;2023-11-19T11:29:35;59.08;;;30.17;;
31514;SDS011;40526;52.088;17.020;2023-11-19T11:34:54;38.85;;;21.75;;
31514;SDS011;40526;52.088;17.020;2023-11-19T11:40:05;44.03;;;22.58;;
31514;SDS011;40526;52.088;17.020;2023-11-19T11:45:12;56.67;;;28.58;;
31514;SDS011;40526;52.088;17.020;2023-11-19T11:50:15;66.05;;;30.35;;
31514;SDS011;40526;52.088;17.020;2023-11-19T11:55:18;69.80;;;31.25;;
31514;SDS011;40526;52.088;17.020;2023-11-19T12:00:22;75.65;;;32.75;;
31514;SDS011;40526;52.088;17.020;2023-11-19T12:05:29;81.60;;;35.72;;
31514;SDS011;40526;52.088;17.020;2023-11-19T12:10:33;105.72;;;39.40;;
31514;SDS011;40526;52.088;17.020;2023-11-19T12:21:20;55.05;;;26.67;;
31514;SDS011;40526;52.088;17.020;2023-11-19T12:26:31;44.10;;;21.65;;
31514;SDS011;40526;52.088;17.020;2023-11-19T12:31:35;51.95;;;24.83;;
31514;SDS011;40526;52.088;17.020;2023-11-19T12:36:38;62.25;;;30.95;;
31514;SDS011;40526;52.088;17.020;2023-11-19T12:41:50;48.15;;;23.20;;
31514;SDS011;40526;52.088;17.020;2023-11-19T12:47:04;37.28;;;19.83;;
31514;SDS011;40526;52.088;17.020;2023-11-19T12:52:13;52.45;;;24.35;;
31514;SDS011;40526;52.088;17.020;2023-11-19T12:57:15;35.28;;;18.92;;
31514;SDS011;40526;52.088;17.020;2023-11-19T13:02:20;57.95;;;25.23;;
31514;SDS011;40526;52.088;17.020;2023-11-19T13:07:23;45.00;;;19.85;;
31514;SDS011;40526;52.088;17.020;2023-11-19T13:12:26;41.10;;;20.17;;
31514;SDS011;40526;52.088;17.020;2023-11-19T13:17:29;41.80;;;19.92;;
31514;SDS011;40526;52.088;17.020;2023-11-19T13:22:32;49.30;;;26.05;;
31514;SDS011;40526;52.088;17.020;2023-11-19T13:27:34;45.28;;;23.88;;
31514;SDS011;40526;52.088;17.020;2023-11-19T13:32:38;32.38;;;18.17;;
31514;SDS011;40526;52.088;17.020;2023-11-19T13:37:40;30.10;;;17.42;;
31514;SDS011;40526;52.088;17.020;2023-11-19T13:42:43;39.13;;;18.08;;
31514;SDS011;40526;52.088;17.020;2023-11-19T13:47:47;28.58;;;16.02;;
31514;SDS011;40526;52.088;17.020;2023-11-19T13:52:50;34.85;;;17.33;;
31514;SDS011;40526;52.088;17.020;2023-11-19T13:57:52;31.73;;;17.67;;
31514;SDS011;40526;52.088;17.020;2023-11-19T14:02:56;33.00;;;16.40;;
31514;SDS011;40526;52.088;17.020;2023-11-19T14:07:58;32.08;;;17.17;;
31514;SDS011;40526;52.088;17.020;2023-11-19T14:13:01;28.25;;;14.55;;
31514;SDS011;40526;52.088;17.020;2023-11-19T14:18:05;23.95;;;13.82;;
31514;SDS011;40526;52.088;17.020;2023-11-19T14:23:07;24.02;;;14.10;;
31514;SDS011;40526;52.088;17.020;2023-11-19T14:28:10;28.38;;;15.73;;
31514;SDS011;40526;52.088;17.020;2023-11-19T14:33:14;29.42;;;15.40;;
31514;SDS011;40526;52.088;17.020;2023-11-19T14:38:16;33.03;;;15.70;;
31514;SDS011;40526;52.088;17.020;2023-11-19T14:43:19;25.92;;;14.73;;
31514;SDS011;40526;52.088;17.020;2023-11-19T14:48:23;43.40;;;20.02;;
31514;SDS011;40526;52.088;17.020;2023-11-19T14:53:25;36.03;;;18.30;;
31514;SDS011;40526;52.088;17.020;2023-11-19T14:58:28;42.10;;;19.83;;
31514;SDS011;40526;52.088;17.020;2023-11-19T15:03:32;37.92;;;19.80;;
31514;SDS011;40526;52.088;17.020;2023-11-19T15:08:34;36.40;;;19.63;;
31514;SDS011;40526;52.088;17.020;2023-11-19T15:13:36;29.05;;;16.85;;
31514;SDS011;40526;52.088;17.020;2023-11-19T15:18:42;28.25;;;14.82;;
31514;SDS011;40526;52.088;17.020;2023-11-19T15:23:44;23.13;;;13.40;;
31514;SDS011;40526;52.088;17.020;2023-11-19T15:28:47;24.90;;;13.60;;
31514;SDS011;40526;52.088;17.020;2023-11-19T15:33:51;26.70;;;15.30;;
31514;SDS011;40526;52.088;17.020;2023-11-19T15:38:54;22.10;;;13.07;;
31514;SDS011;40526;52.088;17.020;2023-11-19T15:43:56;23.50;;;13.68;;
31514;SDS011;40526;52.088;17.020;2023-11-19T15:49:00;25.25;;;14.30;;
31514;SDS011;40526;52.088;17.020;2023-11-19T15:54:03;22.23;;;14.93;;
31514;SDS011;40526;52.088;17.020;2023-11-19T15:59:06;26.60;;;14.63;;
31514;SDS011;40526;52.088;17.020;2023-11-19T16:04:10;23.38;;;14.45;;
31514;SDS011;40526;52.088;17.020;2023-11-19T16:09:13;30.15;;;16.15;;
31514;SDS011;40526;52.088;17.020;2023-11-19T16:14:19;24.50;;;15.90;;
31514;SDS011;40526;52.088;17.020;2023-11-19T16:19:23;23.08;;;14.90;;
31514;SDS011;40526;52.088;17.020;2023-11-19T16:24:27;24.88;;;14.85;;
31514;SDS011;40526;52.088;17.020;2023-11-19T16:29:29;21.52;;;14.75;;
31514;SDS011;40526;52.088;17.020;2023-11-19T16:34:33;24.38;;;14.63;;
31514;SDS011;40526;52.088;17.020;2023-11-19T16:39:41;31.38;;;13.57;;
31514;SDS011;40526;52.088;17.020;2023-11-19T16:44:44;25.95;;;14.60;;
31514;SDS011;40526;52.088;17.020;2023-11-19T16:49:47;23.58;;;13.88;;
31514;SDS011;40526;52.088;17.020;2023-11-19T16:54:50;22.42;;;12.45;;
31514;SDS011;40526;52.088;17.020;2023-11-19T16:59:52;25.60;;;14.63;;
31514;SDS011;40526;52.088;17.020;2023-11-19T17:04:58;27.77;;;16.20;;
31514;SDS011;40526;52.088;17.020;2023-11-19T17:10:00;32.55;;;18.58;;
31514;SDS011;40526;52.088;17.020;2023-11-19T17:15:03;32.70;;;15.75;;
31514;SDS011;40526;52.088;17.020;2023-11-19T17:20:08;24.23;;;13.25;;
31514;SDS011;40526;52.088;17.020;2023-11-19T17:25:10;17.25;;;10.73;;
31514;SDS011;40526;52.088;17.020;2023-11-19T17:30:14;25.55;;;8.88;;
31514;SDS011;40526;52.088;17.020;2023-11-19T17:35:17;15.30;;;8.90;;
31514;SDS011;40526;52.088;17.020;2023-11-19T17:40:21;17.55;;;8.05;;
31514;SDS011;40526;52.088;17.020;2023-11-19T17:45:24;13.00;;;7.78;;
31514;SDS011;40526;52.088;17.020;2023-11-19T17:50:28;16.98;;;8.60;;
31514;SDS011;40526;52.088;17.020;2023-11-19T17:55:30;19.92;;;11.35;;
31514;SDS011;40526;52.088;17.020;2023-11-19T18:00:33;26.50;;;12.05;;
31514;SDS011;40526;52.088;17.020;2023-11-19T18:05:36;18.75;;;10.20;;
31514;SDS011;40526;52.088;17.020;2023-11-19T18:10:41;16.95;;;8.02;;
31514;SDS011;40526;52.088;17.020;2023-11-19T18:15:43;18.55;;;7.80;;
31514;SDS011;40526;52.088;17.020;2023-11-19T18:20:47;22.52;;;7.78;;
31514;SDS011;40526;52.088;17.020;2023-11-19T18:25:49;18.67;;;9.35;;
31514;SDS011;40526;52.088;17.020;2023-11-19T18:30:53;16.75;;;7.75;;
31514;SDS011;40526;52.088;17.020;2023-11-19T18:35:56;23.38;;;8.98;;
31514;SDS011;40526;52.088;17.020;2023-11-19T18:40:59;12.85;;;6.97;;
31514;SDS011;40526;52.088;17.020;2023-11-19T18:46:01;15.93;;;8.35;;
31514;SDS011;40526;52.088;17.020;2023-11-19T18:51:05;16.05;;;7.40;;
31514;SDS011;40526;52.088;17.020;2023-11-19T18:56:10;20.10;;;7.25;;
31514;SDS011;40526;52.088;17.020;2023-11-19T19:01:13;18.80;;;8.27;;
31514;SDS011;40526;52.088;17.020;2023-11-19T19:06:17;18.88;;;7.72;;
31514;SDS011;40526;52.088;17.020;2023-11-19T19:11:20;13.38;;;7.15;;
31514;SDS011;40526;52.088;17.020;2023-11-19T19:16:22;18.90;;;7.32;;
31514;SDS011;40526;52.088;17.020;2023-11-19T19:21:26;23.13;;;7.75;;
31514;SDS011;40526;52.088;17.020;2023-11-19T19:26:34;19.23;;;8.02;;
31514;SDS011;40526;52.088;17.020;2023-11-19T19:31:37;13.90;;;7.30;;
31514;SDS011;40526;52.088;17.020;2023-11-19T19:36:40;12.75;;;7.25;;
31514;SDS011;40526;52.088;17.020;2023-11-19T19:41:43;15.77;;;7.63;;
31514;SDS011;40526;52.088;17.020;2023-11-19T19:46:45;15.70;;;7.13;;
31514;SDS011;40526;52.088;17.020;2023-11-19T19:51:48;16.17;;;7.05;;
31514;SDS011;40526;52.088;17.020;2023-11-19T19:56:51;15.02;;;8.18;;
31514;SDS011;40526;52.088;17.020;2023-11-19T20:01:54;15.93;;;7.55;;
31514;SDS011;40526;52.088;17.020;2023-11-19T20:06:58;23.88;;;8.57;;
31514;SDS011;40526;52.088;17.020;2023-11-19T20:12:00;15.70;;;7.40;;
31514;SDS011;40526;52.088;17.020;2023-11-19T20:17:02;21.35;;;8.10;;
31514;SDS011;40526;52.088;17.020;2023-11-19T20:22:06;14.18;;;8.25;;
31514;SDS011;40526;52.088;17.020;2023-11-19T20:27:09;20.08;;;7.88;;
31514;SDS011;40526;52.088;17.020;2023-11-19T20:32:16;16.10;;;8.90;;
31514;SDS011;40526;52.088;17.020;2023-11-19T20:37:19;18.23;;;6.70;;
31514;SDS011;40526;52.088;17.020;2023-11-19T20:42:22;13.07;;;7.20;;
31514;SDS011;40526;52.088;17.020;2023-11-19T20:47:24;17.58;;;6.88;;
31514;SDS011;40526;52.088;17.020;2023-11-19T20:52:28;14.20;;;6.88;;
31514;SDS011;40526;52.088;17.020;2023-11-19T20:57:31;17.38;;;5.90;;
31514;SDS011;40526;52.088;17.020;2023-11-19T21:02:33;14.65;;;6.18;;
31514;SDS011;40526;52.088;17.020;2023-11-19T21:07:37;12.55;;;6.00;;
31514;SDS011;40526;52.088;17.020;2023-11-19T21:12:40;12.90;;;6.47;;
31514;SDS011;40526;52.088;17.020;2023-11-19T21:17:42;13.50;;;6.55;;
31514;SDS011;40526;52.088;17.020;2023-11-19T21:22:46;13.68;;;6.43;;
31514;SDS011;40526;52.088;17.020;2023-11-19T21:27:48;12.90;;;5.97;;
31514;SDS011;40526;52.088;17.020;2023-11-19T21:32:50;16.48;;;6.63;;
31514;SDS011;40526;52.088;17.020;2023-11-19T21:37:55;21.17;;;6.18;;
31514;SDS011;40526;52.088;17.020;2023-11-19T21:42:58;12.38;;;6.22;;
31514;SDS011;40526;52.088;17.020;2023-11-19T21:48:00;16.20;;;6.22;;
31514;SDS011;40526;52.088;17.020;2023-11-19T21:53:04;17.95;;;7.00;;
31514;SDS011;40526;52.088;17.020;2023-11-19T21:58:07;18.25;;;7.38;;
31514;SDS011;40526;52.088;17.020;2023-11-19T22:03:09;14.05;;;6.53;;
31514;SDS011;40526;52.088;17.020;2023-11-19T22:08:13;9.00;;;5.25;;
31514;SDS011;40526;52.088;17.020;2023-11-19T22:13:15;11.93;;;5.95;;
31514;SDS011;40526;52.088;17.020;2023-11-19T22:18:18;19.35;;;6.28;;
31514;SDS011;40526;52.088;17.020;2023-11-19T22:23:22;28.52;;;7.60;;
31514;SDS011;40526;52.088;17.020;2023-11-19T22:28:25;14.18;;;5.22;;
31514;SDS011;40526;52.088;17.020;2023-11-19T22:33:27;15.95;;;4.85;;
31514;SDS011;40526;52.088;17.020;2023-11-19T22:38:31;11.10;;;4.72;;
31514;SDS011;40526;52.088;17.020;2023-11-19T22:43:33;11.65;;;4.70;;
31514;SDS011;40526;52.088;17.020;2023-11-19T22:48:36;9.55;;;5.47;;
31514;SDS011;40526;52.088;17.020;2023-11-19T22:53:39;12.30;;;4.47;;
31514;SDS011;40526;52.088;17.020;2023-11-19T22:58:42;13.45;;;4.28;;
31514;SDS011;40526;52.088;17.020;2023-11-19T23:03:49;7.43;;;4.57;;
31514;SDS011;40526;52.088;17.020;2023-11-19T23:08:53;9.40;;;4.05;;
31514;SDS011;40526;52.088;17.020;2023-11-19T23:13:55;12.68;;;3.97;;
31514;SDS011;40526;52.088;17.020;2023-11-19T23:18:58;9.73;;;3.50;;
31514;SDS011;40526;52.088;17.020;2023-11-19T23:24:02;8.10;;;3.65;;
31514;SDS011;40526;52.088;17.020;2023-11-19T23:29:04;11.10;;;4.72;;
31514;SDS011;40526;52.088;17.020;2023-11-19T23:34:07;14.05;;;4.68;;
31514;SDS011;40526;52.088;17.020;2023-11-19T23:39:11;8.45;;;4.00;;
31514;SDS011;40526;52.088;17.020;2023-11-19T23:44:13;7.85;;;3.67;;
31514;SDS011;40526;52.088;17.020;2023-11-19T23:49:16;6.32;;;3.35;;
31514;SDS011;40526;52.088;17.020;2023-11-19T23:54:20;10.82;;;4.18;;
31514;SDS011;40526;52.088;17.020;2023-11-19T23:59:22;10.73;;;4.05;;
